sensor_id;sensor_type;location;lat;lon;timestamp;temperature;humidity
25871;DHT22;13689;48.590;7.752;2023-02-16T00:00:06;4.00;92.10
25871;DHT22;13689;48.590;7.752;2023-02-16T00:02:32;4.00;92.00
25871;DHT22;13689;48.590;7.752;2023-02-16T00:04:58;4.00;92.10
25871;DHT22;13689;48.590;7.752;2023-02-16T00:07:23;3.90;92.10
25871;DHT22;13689;48.590;7.752;2023-02-16T00:09:49;3.90;92.00
25871;DHT22;13689;48.590;7.752;2023-02-16T00:12:17;3.90;92.00
25871;DHT22;13689;48.590;7.752;2023-02-16T00:15:22;3.80;92.00
25871;DHT22;13689;48.590;7.752;2023-02-16T00:17:47;3.80;92.10
25871;DHT22;13689;48.590;7.752;2023-02-16T00:20:17;3.70;92.10
25871;DHT22;13689;48.590;7.752;2023-02-16T00:22:43;3.80;92.20
25871;DHT22;13689;48.590;7.752;2023-02-16T00:25:09;3.80;92.20
25871;DHT22;13689;48.590;7.752;2023-02-16T00:27:35;3.70;92.10
25871;DHT22;13689;48.590;7.752;2023-02-16T00:30:00;3.70;92.10
25871;DHT22;13689;48.590;7.752;2023-02-16T00:32:26;3.70;92.20
25871;DHT22;13689;48.590;7.752;2023-02-16T00:34:52;3.70;92.30
25871;DHT22;13689;48.590;7.752;2023-02-16T00:37:18;3.70;92.20
25871;DHT22;13689;48.590;7.752;2023-02-16T00:39:44;3.70;92.20
25871;DHT22;13689;48.590;7.752;2023-02-16T00:42:19;3.70;92.20
25871;DHT22;13689;48.590;7.752;2023-02-16T00:44:51;3.80;92.20
25871;DHT22;13689;48.590;7.752;2023-02-16T00:49:50;3.80;92.20
25871;DHT22;13689;48.590;7.752;2023-02-16T00:52:25;3.80;92.20
25871;DHT22;13689;48.590;7.752;2023-02-16T00:54:52;3.80;92.20
25871;DHT22;13689;48.590;7.752;2023-02-16T00:57:18;3.80;92.20
25871;DHT22;13689;48.590;7.752;2023-02-16T00:59:45;3.80;92.20
25871;DHT22;13689;48.590;7.752;2023-02-16T01:02:11;3.80;92.20
25871;DHT22;13689;48.590;7.752;2023-02-16T01:04:37;3.80;92.20
25871;DHT22;13689;48.590;7.752;2023-02-16T01:07:15;3.70;92.50
25871;DHT22;13689;48.590;7.752;2023-02-16T01:09:59;3.70;92.00
25871;DHT22;13689;48.590;7.752;2023-02-16T01:12:44;3.70;92.00
25871;DHT22;13689;48.590;7.752;2023-02-16T01:15:13;3.70;92.10
25871;DHT22;13689;48.590;7.752;2023-02-16T01:17:39;3.70;92.50
25871;DHT22;13689;48.590;7.752;2023-02-16T01:20:19;3.60;92.20
25871;DHT22;13689;48.590;7.752;2023-02-16T01:22:44;3.70;92.20
25871;DHT22;13689;48.590;7.752;2023-02-16T01:25:10;3.70;92.10
25871;DHT22;13689;48.590;7.752;2023-02-16T01:27:37;3.70;92.10
25871;DHT22;13689;48.590;7.752;2023-02-16T01:30:05;3.70;92.10
25871;DHT22;13689;48.590;7.752;2023-02-16T01:32:31;3.60;92.10
25871;DHT22;13689;48.590;7.752;2023-02-16T01:34:57;3.60;92.00
25871;DHT22;13689;48.590;7.752;2023-02-16T01:37:23;3.60;92.10
25871;DHT22;13689;48.590;7.752;2023-02-16T01:39:49;3.60;92.00
25871;DHT22;13689;48.590;7.752;2023-02-16T01:42:35;3.50;92.00
25871;DHT22;13689;48.590;7.752;2023-02-16T01:45:13;3.60;92.10
25871;DHT22;13689;48.590;7.752;2023-02-16T01:48:05;3.60;92.10
25871;DHT22;13689;48.590;7.752;2023-02-16T01:50:47;3.60;92.00
25871;DHT22;13689;48.590;7.752;2023-02-16T01:53:36;3.50;91.90
25871;DHT22;13689;48.590;7.752;2023-02-16T01:56:05;3.50;92.00
25871;DHT22;13689;48.590;7.752;2023-02-16T01:58:39;3.50;92.00
25871;DHT22;13689;48.590;7.752;2023-02-16T02:01:32;3.50;92.00
25871;DHT22;13689;48.590;7.752;2023-02-16T02:04:00;3.50;92.00
25871;DHT22;13689;48.590;7.752;2023-02-16T02:06:45;3.50;92.10
25871;DHT22;13689;48.590;7.752;2023-02-16T02:09:22;3.50;92.00
25871;DHT22;13689;48.590;7.752;2023-02-16T02:12:02;3.40;92.00
25871;DHT22;13689;48.590;7.752;2023-02-16T02:14:36;3.40;92.10
25871;DHT22;13689;48.590;7.752;2023-02-16T02:17:15;3.50;92.10
25871;DHT22;13689;48.590;7.752;2023-02-16T02:19:56;3.50;92.00
25871;DHT22;13689;48.590;7.752;2023-02-16T02:36:34;3.40;91.70
25871;DHT22;13689;48.590;7.752;2023-02-16T02:42:19;3.30;91.80
25871;DHT22;13689;48.590;7.752;2023-02-16T02:44:52;3.30;91.80
25871;DHT22;13689;48.590;7.752;2023-02-16T02:47:18;3.30;91.90
25871;DHT22;13689;48.590;7.752;2023-02-16T02:49:53;3.30;91.80
25871;DHT22;13689;48.590;7.752;2023-02-16T02:52:20;3.30;91.80
25871;DHT22;13689;48.590;7.752;2023-02-16T02:54:48;3.20;91.80
25871;DHT22;13689;48.590;7.752;2023-02-16T02:57:39;3.20;91.80
25871;DHT22;13689;48.590;7.752;2023-02-16T03:00:26;3.20;91.80
25871;DHT22;13689;48.590;7.752;2023-02-16T03:03:20;3.20;91.80
25871;DHT22;13689;48.590;7.752;2023-02-16T03:05:51;3.10;91.70
25871;DHT22;13689;48.590;7.752;2023-02-16T03:08:21;3.10;91.60
25871;DHT22;13689;48.590;7.752;2023-02-16T03:10:50;3.10;91.70
25871;DHT22;13689;48.590;7.752;2023-02-16T03:13:39;3.10;91.80
25871;DHT22;13689;48.590;7.752;2023-02-16T03:16:11;3.10;91.80
25871;DHT22;13689;48.590;7.752;2023-02-16T03:18:39;3.00;92.10
25871;DHT22;13689;48.590;7.752;2023-02-16T03:21:26;3.00;91.70
25871;DHT22;13689;48.590;7.752;2023-02-16T03:24:14;3.00;91.80
25871;DHT22;13689;48.590;7.752;2023-02-16T03:27:00;2.90;91.70
25871;DHT22;13689;48.590;7.752;2023-02-16T03:29:46;3.00;91.70
25871;DHT22;13689;48.590;7.752;2023-02-16T03:32:13;2.90;91.70
25871;DHT22;13689;48.590;7.752;2023-02-16T03:34:39;2.90;91.70
25871;DHT22;13689;48.590;7.752;2023-02-16T03:37:05;2.90;91.60
25871;DHT22;13689;48.590;7.752;2023-02-16T03:39:31;2.90;91.70
25871;DHT22;13689;48.590;7.752;2023-02-16T03:42:18;2.90;91.60
25871;DHT22;13689;48.590;7.752;2023-02-16T03:44:45;2.90;91.60
25871;DHT22;13689;48.590;7.752;2023-02-16T03:47:10;2.90;91.60
25871;DHT22;13689;48.590;7.752;2023-02-16T03:49:36;2.80;91.60
25871;DHT22;13689;48.590;7.752;2023-02-16T03:52:01;2.80;92.10
25871;DHT22;13689;48.590;7.752;2023-02-16T03:54:27;2.80;91.70
25871;DHT22;13689;48.590;7.752;2023-02-16T03:56:53;2.90;91.70
25871;DHT22;13689;48.590;7.752;2023-02-16T03:59:18;2.80;91.60
25871;DHT22;13689;48.590;7.752;2023-02-16T04:01:44;2.80;91.60
25871;DHT22;13689;48.590;7.752;2023-02-16T04:04:10;2.80;91.60
25871;DHT22;13689;48.590;7.752;2023-02-16T04:06:35;2.80;91.60
25871;DHT22;13689;48.590;7.752;2023-02-16T04:09:01;2.80;91.60
25871;DHT22;13689;48.590;7.752;2023-02-16T04:11:27;2.70;91.60
25871;DHT22;13689;48.590;7.752;2023-02-16T04:14:11;2.80;91.60
25871;DHT22;13689;48.590;7.752;2023-02-16T04:16:36;2.70;91.60
25871;DHT22;13689;48.590;7.752;2023-02-16T04:19:02;2.70;91.70
25871;DHT22;13689;48.590;7.752;2023-02-16T04:21:28;2.70;91.70
25871;DHT22;13689;48.590;7.752;2023-02-16T04:23:53;2.70;91.60
25871;DHT22;13689;48.590;7.752;2023-02-16T04:26:19;2.70;91.60
25871;DHT22;13689;48.590;7.752;2023-02-16T04:28:44;2.70;91.70
25871;DHT22;13689;48.590;7.752;2023-02-16T04:31:10;2.70;91.70
25871;DHT22;13689;48.590;7.752;2023-02-16T04:33:35;2.70;91.70
25871;DHT22;13689;48.590;7.752;2023-02-16T04:36:01;2.70;91.70
25871;DHT22;13689;48.590;7.752;2023-02-16T04:38:27;2.70;91.70
25871;DHT22;13689;48.590;7.752;2023-02-16T04:40:52;2.70;91.70
25871;DHT22;13689;48.590;7.752;2023-02-16T04:43:18;2.70;91.60
25871;DHT22;13689;48.590;7.752;2023-02-16T04:45:43;2.70;91.60
25871;DHT22;13689;48.590;7.752;2023-02-16T04:48:09;2.70;91.60
25871;DHT22;13689;48.590;7.752;2023-02-16T04:50:34;2.70;91.70
25871;DHT22;13689;48.590;7.752;2023-02-16T04:53:00;2.70;91.70
25871;DHT22;13689;48.590;7.752;2023-02-16T04:55:26;2.60;91.70
25871;DHT22;13689;48.590;7.752;2023-02-16T04:57:51;2.70;91.70
25871;DHT22;13689;48.590;7.752;2023-02-16T05:00:17;2.60;91.70
25871;DHT22;13689;48.590;7.752;2023-02-16T05:02:43;2.70;91.70
25871;DHT22;13689;48.590;7.752;2023-02-16T05:05:08;2.60;91.70
25871;DHT22;13689;48.590;7.752;2023-02-16T05:07:34;2.60;92.10
25871;DHT22;13689;48.590;7.752;2023-02-16T05:10:01;2.60;91.70
25871;DHT22;13689;48.590;7.752;2023-02-16T05:12:26;2.60;91.70
25871;DHT22;13689;48.590;7.752;2023-02-16T05:15:10;2.60;91.70
25871;DHT22;13689;48.590;7.752;2023-02-16T05:17:36;2.60;91.70
25871;DHT22;13689;48.590;7.752;2023-02-16T05:20:02;2.60;91.70
25871;DHT22;13689;48.590;7.752;2023-02-16T05:22:27;2.60;91.70
25871;DHT22;13689;48.590;7.752;2023-02-16T05:24:53;2.60;91.70
25871;DHT22;13689;48.590;7.752;2023-02-16T05:27:26;2.60;91.70
25871;DHT22;13689;48.590;7.752;2023-02-16T05:29:53;2.60;91.60
25871;DHT22;13689;48.590;7.752;2023-02-16T05:32:18;2.60;91.70
25871;DHT22;13689;48.590;7.752;2023-02-16T05:34:44;2.60;91.70
25871;DHT22;13689;48.590;7.752;2023-02-16T05:37:11;2.50;91.70
25871;DHT22;13689;48.590;7.752;2023-02-16T05:39:37;2.60;91.70
25871;DHT22;13689;48.590;7.752;2023-02-16T05:42:03;2.60;91.70
25871;DHT22;13689;48.590;7.752;2023-02-16T05:44:28;2.50;91.70
25871;DHT22;13689;48.590;7.752;2023-02-16T05:46:54;2.50;91.70
25871;DHT22;13689;48.590;7.752;2023-02-16T05:49:20;2.50;91.70
25871;DHT22;13689;48.590;7.752;2023-02-16T05:51:45;2.60;91.80
25871;DHT22;13689;48.590;7.752;2023-02-16T05:54:11;2.50;91.70
25871;DHT22;13689;48.590;7.752;2023-02-16T05:56:43;2.50;91.70
25871;DHT22;13689;48.590;7.752;2023-02-16T05:59:08;2.50;92.10
25871;DHT22;13689;48.590;7.752;2023-02-16T06:01:34;2.50;91.70
25871;DHT22;13689;48.590;7.752;2023-02-16T06:04:00;2.50;91.70
25871;DHT22;13689;48.590;7.752;2023-02-16T06:06:25;2.50;91.80
25871;DHT22;13689;48.590;7.752;2023-02-16T06:08:51;2.50;91.80
25871;DHT22;13689;48.590;7.752;2023-02-16T06:11:16;2.50;91.80
25871;DHT22;13689;48.590;7.752;2023-02-16T06:14:04;2.50;91.80
25871;DHT22;13689;48.590;7.752;2023-02-16T06:16:31;2.50;91.80
25871;DHT22;13689;48.590;7.752;2023-02-16T06:18:58;2.50;91.80
25871;DHT22;13689;48.590;7.752;2023-02-16T06:21:26;2.50;91.70
25871;DHT22;13689;48.590;7.752;2023-02-16T06:23:51;2.60;91.80
25871;DHT22;13689;48.590;7.752;2023-02-16T06:26:18;2.50;91.80
25871;DHT22;13689;48.590;7.752;2023-02-16T06:28:43;2.50;91.80
25871;DHT22;13689;48.590;7.752;2023-02-16T06:31:09;2.50;91.70
25871;DHT22;13689;48.590;7.752;2023-02-16T06:33:35;2.50;91.80
25871;DHT22;13689;48.590;7.752;2023-02-16T06:36:00;2.60;91.80
25871;DHT22;13689;48.590;7.752;2023-02-16T06:38:26;2.50;91.80
25871;DHT22;13689;48.590;7.752;2023-02-16T06:40:52;2.60;91.80
25871;DHT22;13689;48.590;7.752;2023-02-16T06:43:18;2.60;91.80
25871;DHT22;13689;48.590;7.752;2023-02-16T06:45:44;2.60;91.80
25871;DHT22;13689;48.590;7.752;2023-02-16T06:48:10;2.60;91.80
25871;DHT22;13689;48.590;7.752;2023-02-16T06:50:36;2.60;91.80
25871;DHT22;13689;48.590;7.752;2023-02-16T06:53:02;2.60;91.80
25871;DHT22;13689;48.590;7.752;2023-02-16T06:55:27;2.60;91.80
25871;DHT22;13689;48.590;7.752;2023-02-16T06:57:55;2.70;91.80
25871;DHT22;13689;48.590;7.752;2023-02-16T07:00:21;2.70;91.90
25871;DHT22;13689;48.590;7.752;2023-02-16T07:02:47;2.70;91.80
25871;DHT22;13689;48.590;7.752;2023-02-16T07:05:12;2.70;91.80
25871;DHT22;13689;48.590;7.752;2023-02-16T07:07:38;2.70;91.70
25871;DHT22;13689;48.590;7.752;2023-02-16T07:10:04;2.70;91.80
25871;DHT22;13689;48.590;7.752;2023-02-16T07:12:30;2.70;91.80
25871;DHT22;13689;48.590;7.752;2023-02-16T07:14:55;2.70;91.80
25871;DHT22;13689;48.590;7.752;2023-02-16T07:17:21;2.80;91.80
25871;DHT22;13689;48.590;7.752;2023-02-16T07:19:47;2.80;91.80
25871;DHT22;13689;48.590;7.752;2023-02-16T07:22:12;2.80;91.80
25871;DHT22;13689;48.590;7.752;2023-02-16T07:24:38;2.80;91.80
25871;DHT22;13689;48.590;7.752;2023-02-16T07:27:03;2.80;91.80
25871;DHT22;13689;48.590;7.752;2023-02-16T07:29:29;2.80;91.70
25871;DHT22;13689;48.590;7.752;2023-02-16T07:31:55;2.80;91.80
25871;DHT22;13689;48.590;7.752;2023-02-16T07:34:22;2.90;91.80
25871;DHT22;13689;48.590;7.752;2023-02-16T07:36:48;2.90;91.80
25871;DHT22;13689;48.590;7.752;2023-02-16T07:39:13;3.00;91.80
25871;DHT22;13689;48.590;7.752;2023-02-16T07:41:39;3.00;91.80
25871;DHT22;13689;48.590;7.752;2023-02-16T07:44:06;3.00;91.80
25871;DHT22;13689;48.590;7.752;2023-02-16T07:46:32;3.00;91.70
25871;DHT22;13689;48.590;7.752;2023-02-16T07:48:57;3.10;91.80
25871;DHT22;13689;48.590;7.752;2023-02-16T07:51:25;3.20;91.80
25871;DHT22;13689;48.590;7.752;2023-02-16T07:53:51;3.20;91.70
25871;DHT22;13689;48.590;7.752;2023-02-16T07:56:22;3.20;91.70
25871;DHT22;13689;48.590;7.752;2023-02-16T07:58:56;3.20;91.70
25871;DHT22;13689;48.590;7.752;2023-02-16T08:01:23;3.20;91.70
25871;DHT22;13689;48.590;7.752;2023-02-16T08:03:48;3.30;91.70
25871;DHT22;13689;48.590;7.752;2023-02-16T08:06:15;3.30;91.70
25871;DHT22;13689;48.590;7.752;2023-02-16T08:08:40;3.40;91.70
25871;DHT22;13689;48.590;7.752;2023-02-16T08:11:20;3.40;91.60
25871;DHT22;13689;48.590;7.752;2023-02-16T08:13:47;3.40;91.60
25871;DHT22;13689;48.590;7.752;2023-02-16T08:16:21;3.50;91.60
25871;DHT22;13689;48.590;7.752;2023-02-16T08:18:47;3.50;91.60
25871;DHT22;13689;48.590;7.752;2023-02-16T08:21:21;3.50;91.50
25871;DHT22;13689;48.590;7.752;2023-02-16T08:24:02;3.60;91.60
25871;DHT22;13689;48.590;7.752;2023-02-16T08:26:39;3.70;91.50
25871;DHT22;13689;48.590;7.752;2023-02-16T08:29:06;3.70;91.50
25871;DHT22;13689;48.590;7.752;2023-02-16T08:31:34;3.70;91.50
25871;DHT22;13689;48.590;7.752;2023-02-16T08:34:02;3.80;91.40
25871;DHT22;13689;48.590;7.752;2023-02-16T08:36:30;3.80;91.40
25871;DHT22;13689;48.590;7.752;2023-02-16T08:39:05;3.80;91.40
25871;DHT22;13689;48.590;7.752;2023-02-16T08:41:33;3.90;91.30
25871;DHT22;13689;48.590;7.752;2023-02-16T08:43:59;3.90;91.30
25871;DHT22;13689;48.590;7.752;2023-02-16T08:46:27;4.00;91.30
25871;DHT22;13689;48.590;7.752;2023-02-16T08:48:57;4.10;91.30
25871;DHT22;13689;48.590;7.752;2023-02-16T08:51:29;4.20;91.30
25871;DHT22;13689;48.590;7.752;2023-02-16T08:53:57;4.30;91.30
25871;DHT22;13689;48.590;7.752;2023-02-16T08:56:23;4.40;91.30
25871;DHT22;13689;48.590;7.752;2023-02-16T08:58:48;4.60;91.30
25871;DHT22;13689;48.590;7.752;2023-02-16T09:01:14;4.80;91.20
25871;DHT22;13689;48.590;7.752;2023-02-16T09:03:41;5.60;91.40
25871;DHT22;13689;48.590;7.752;2023-02-16T09:06:08;6.90;91.60
25871;DHT22;13689;48.590;7.752;2023-02-16T09:08:35;8.10;91.20
25871;DHT22;13689;48.590;7.752;2023-02-16T09:11:10;9.00;90.00
25871;DHT22;13689;48.590;7.752;2023-02-16T09:13:36;9.90;88.50
25871;DHT22;13689;48.590;7.752;2023-02-16T09:16:08;10.60;87.30
25871;DHT22;13689;48.590;7.752;2023-02-16T09:18:34;11.30;85.60
25871;DHT22;13689;48.590;7.752;2023-02-16T09:21:06;11.80;84.10
25871;DHT22;13689;48.590;7.752;2023-02-16T09:23:35;12.50;82.60
25871;DHT22;13689;48.590;7.752;2023-02-16T09:26:01;13.00;80.70
25871;DHT22;13689;48.590;7.752;2023-02-16T09:28:28;13.60;78.40
25871;DHT22;13689;48.590;7.752;2023-02-16T09:30:54;14.20;76.30
25871;DHT22;13689;48.590;7.752;2023-02-16T09:33:19;14.60;74.10
25871;DHT22;13689;48.590;7.752;2023-02-16T09:35:46;15.00;71.50
25871;DHT22;13689;48.590;7.752;2023-02-16T09:38:11;15.40;69.00
25871;DHT22;13689;48.590;7.752;2023-02-16T09:40:41;15.70;67.50
25871;DHT22;13689;48.590;7.752;2023-02-16T09:43:29;16.10;66.00
25871;DHT22;13689;48.590;7.752;2023-02-16T09:45:57;16.30;63.50
25871;DHT22;13689;48.590;7.752;2023-02-16T09:50:57;16.50;60.30
25871;DHT22;13689;48.590;7.752;2023-02-16T09:54:45;16.50;59.70
25871;DHT22;13689;48.590;7.752;2023-02-16T09:56:53;16.50;59.40
25871;DHT22;13689;48.590;7.752;2023-02-16T10:02:21;16.60;59.40
25871;DHT22;13689;48.590;7.752;2023-02-16T10:05:15;16.60;58.40
25871;DHT22;13689;48.590;7.752;2023-02-16T10:10:22;16.90;58.00
25871;DHT22;13689;48.590;7.752;2023-02-16T10:12:54;17.20;57.60
25871;DHT22;13689;48.590;7.752;2023-02-16T10:15:25;17.40;56.80
25871;DHT22;13689;48.590;7.752;2023-02-16T10:18:06;17.60;56.20
25871;DHT22;13689;48.590;7.752;2023-02-16T10:20:41;17.80;55.30
25871;DHT22;13689;48.590;7.752;2023-02-16T10:26:16;17.70;52.80
25871;DHT22;13689;48.590;7.752;2023-02-16T10:28:50;18.00;51.80
25871;DHT22;13689;48.590;7.752;2023-02-16T10:42:38;19.80;47.60
25871;DHT22;13689;48.590;7.752;2023-02-16T10:47:56;20.30;46.00
25871;DHT22;13689;48.590;7.752;2023-02-16T10:52:48;16.90;47.80
25871;DHT22;13689;48.590;7.752;2023-02-16T10:55:15;15.20;50.30
25871;DHT22;13689;48.590;7.752;2023-02-16T10:57:41;14.00;51.90
25871;DHT22;13689;48.590;7.752;2023-02-16T11:00:11;13.10;53.10
25871;DHT22;13689;48.590;7.752;2023-02-16T11:02:42;12.40;54.20
25871;DHT22;13689;48.590;7.752;2023-02-16T11:05:29;12.00;55.00
25871;DHT22;13689;48.590;7.752;2023-02-16T11:07:57;11.60;55.70
25871;DHT22;13689;48.590;7.752;2023-02-16T11:10:47;11.40;56.30
25871;DHT22;13689;48.590;7.752;2023-02-16T11:15:51;11.10;57.10
25871;DHT22;13689;48.590;7.752;2023-02-16T11:18:46;11.10;58.00
25871;DHT22;13689;48.590;7.752;2023-02-16T11:21:14;11.10;57.60
25871;DHT22;13689;48.590;7.752;2023-02-16T11:23:43;11.00;57.80
25871;DHT22;13689;48.590;7.752;2023-02-16T11:26:24;11.00;58.00
25871;DHT22;13689;48.590;7.752;2023-02-16T11:28:51;11.00;58.40
25871;DHT22;13689;48.590;7.752;2023-02-16T11:31:23;10.90;58.60
25871;DHT22;13689;48.590;7.752;2023-02-16T11:36:30;10.90;58.80
25871;DHT22;13689;48.590;7.752;2023-02-16T11:41:34;10.90;58.80
25871;DHT22;13689;48.590;7.752;2023-02-16T11:44:01;11.00;58.90
25871;DHT22;13689;48.590;7.752;2023-02-16T11:46:28;11.00;59.10
25871;DHT22;13689;48.590;7.752;2023-02-16T11:49:26;11.00;59.30
25871;DHT22;13689;48.590;7.752;2023-02-16T11:51:53;11.10;59.50
25871;DHT22;13689;48.590;7.752;2023-02-16T11:54:18;11.10;59.50
25871;DHT22;13689;48.590;7.752;2023-02-16T11:57:00;11.10;59.70
25871;DHT22;13689;48.590;7.752;2023-02-16T11:59:27;11.30;59.70
25871;DHT22;13689;48.590;7.752;2023-02-16T12:07:11;11.50;59.90
25871;DHT22;13689;48.590;7.752;2023-02-16T12:17:50;11.80;59.70
25871;DHT22;13689;48.590;7.752;2023-02-16T12:26:25;11.80;59.80
25871;DHT22;13689;48.590;7.752;2023-02-16T12:39:48;11.80;60.00
25871;DHT22;13689;48.590;7.752;2023-02-16T12:42:23;11.80;59.90
25871;DHT22;13689;48.590;7.752;2023-02-16T12:44:55;11.80;59.80
25871;DHT22;13689;48.590;7.752;2023-02-16T12:47:49;11.90;59.70
25871;DHT22;13689;48.590;7.752;2023-02-16T12:50:31;11.90;59.60
25871;DHT22;13689;48.590;7.752;2023-02-16T12:53:40;11.90;59.60
25871;DHT22;13689;48.590;7.752;2023-02-16T12:56:11;12.00;59.40
25871;DHT22;13689;48.590;7.752;2023-02-16T12:58:43;12.10;59.30
25871;DHT22;13689;48.590;7.752;2023-02-16T13:01:15;12.10;59.20
25871;DHT22;13689;48.590;7.752;2023-02-16T13:04:06;12.20;59.20
25871;DHT22;13689;48.590;7.752;2023-02-16T13:14:22;12.30;59.20
25871;DHT22;13689;48.590;7.752;2023-02-16T13:16:59;12.20;59.20
25871;DHT22;13689;48.590;7.752;2023-02-16T13:19:27;12.20;59.40
25871;DHT22;13689;48.590;7.752;2023-02-16T13:24:52;12.30;59.40
25871;DHT22;13689;48.590;7.752;2023-02-16T13:44:18;12.70;59.20
25871;DHT22;13689;48.590;7.752;2023-02-16T13:46:47;12.70;59.10
25871;DHT22;13689;48.590;7.752;2023-02-16T13:51:53;12.70;59.00
25871;DHT22;13689;48.590;7.752;2023-02-16T13:54:28;12.70;58.90
25871;DHT22;13689;48.590;7.752;2023-02-16T13:56:54;12.70;59.00
25871;DHT22;13689;48.590;7.752;2023-02-16T14:01:49;12.70;59.20
25871;DHT22;13689;48.590;7.752;2023-02-16T14:09:47;12.70;58.90
25871;DHT22;13689;48.590;7.752;2023-02-16T14:12:28;12.70;58.90
25871;DHT22;13689;48.590;7.752;2023-02-16T14:15:14;12.60;58.90
25871;DHT22;13689;48.590;7.752;2023-02-16T14:17:42;12.60;59.00
25871;DHT22;13689;48.590;7.752;2023-02-16T14:27:52;12.50;59.10
25871;DHT22;13689;48.590;7.752;2023-02-16T14:35:40;12.60;59.20
25871;DHT22;13689;48.590;7.752;2023-02-16T14:38:20;12.60;59.20
25871;DHT22;13689;48.590;7.752;2023-02-16T14:41:00;12.60;59.20
25871;DHT22;13689;48.590;7.752;2023-02-16T14:51:37;12.70;59.00
25871;DHT22;13689;48.590;7.752;2023-02-16T14:57:04;12.60;59.00
25871;DHT22;13689;48.590;7.752;2023-02-16T15:02:33;12.60;59.10
25871;DHT22;13689;48.590;7.752;2023-02-16T15:05:17;12.60;59.00
25871;DHT22;13689;48.590;7.752;2023-02-16T15:07:44;12.60;59.00
25871;DHT22;13689;48.590;7.752;2023-02-16T15:10:12;12.60;58.90
25871;DHT22;13689;48.590;7.752;2023-02-16T15:12:39;12.50;58.80
25871;DHT22;13689;48.590;7.752;2023-02-16T15:15:07;12.50;58.80
25871;DHT22;13689;48.590;7.752;2023-02-16T15:17:40;12.50;58.60
25871;DHT22;13689;48.590;7.752;2023-02-16T15:20:34;12.60;58.50
25871;DHT22;13689;48.590;7.752;2023-02-16T15:23:16;12.60;58.20
25871;DHT22;13689;48.590;7.752;2023-02-16T15:25:58;12.60;58.20
25871;DHT22;13689;48.590;7.752;2023-02-16T15:28:29;12.60;58.10
25871;DHT22;13689;48.590;7.752;2023-02-16T15:31:04;12.50;58.10
25871;DHT22;13689;48.590;7.752;2023-02-16T15:33:40;12.50;58.10
25871;DHT22;13689;48.590;7.752;2023-02-16T15:36:11;12.50;58.00
25871;DHT22;13689;48.590;7.752;2023-02-16T15:38:40;12.50;58.00
25871;DHT22;13689;48.590;7.752;2023-02-16T15:41:11;12.40;57.90
25871;DHT22;13689;48.590;7.752;2023-02-16T15:43:46;12.40;57.90
25871;DHT22;13689;48.590;7.752;2023-02-16T15:49:28;12.50;57.80
25871;DHT22;13689;48.590;7.752;2023-02-16T15:51:58;12.40;57.60
25871;DHT22;13689;48.590;7.752;2023-02-16T15:54:26;12.40;57.60
25871;DHT22;13689;48.590;7.752;2023-02-16T15:56:54;12.40;57.60
25871;DHT22;13689;48.590;7.752;2023-02-16T15:59:34;12.30;57.70
25871;DHT22;13689;48.590;7.752;2023-02-16T16:04:53;12.30;57.80
25871;DHT22;13689;48.590;7.752;2023-02-16T16:07:31;12.20;57.90
25871;DHT22;13689;48.590;7.752;2023-02-16T16:10:00;12.20;58.00
25871;DHT22;13689;48.590;7.752;2023-02-16T16:12:26;12.20;58.00
25871;DHT22;13689;48.590;7.752;2023-02-16T16:14:58;12.20;58.00
25871;DHT22;13689;48.590;7.752;2023-02-16T16:17:27;12.20;58.10
25871;DHT22;13689;48.590;7.752;2023-02-16T16:19:54;12.20;58.10
25871;DHT22;13689;48.590;7.752;2023-02-16T16:24:57;12.20;58.20
25871;DHT22;13689;48.590;7.752;2023-02-16T16:27:34;12.10;58.20
25871;DHT22;13689;48.590;7.752;2023-02-16T16:33:04;12.10;58.40
25871;DHT22;13689;48.590;7.752;2023-02-16T16:37:59;12.10;58.60
25871;DHT22;13689;48.590;7.752;2023-02-16T16:40:29;12.00;58.60
25871;DHT22;13689;48.590;7.752;2023-02-16T16:48:00;11.90;59.10
25871;DHT22;13689;48.590;7.752;2023-02-16T16:50:32;11.90;59.20
25871;DHT22;13689;48.590;7.752;2023-02-16T16:52:57;11.90;59.30
25871;DHT22;13689;48.590;7.752;2023-02-16T16:55:26;11.90;59.40
25871;DHT22;13689;48.590;7.752;2023-02-16T16:58:13;11.90;59.40
25871;DHT22;13689;48.590;7.752;2023-02-16T17:00:39;11.90;59.40
25871;DHT22;13689;48.590;7.752;2023-02-16T17:03:07;11.90;59.50
25871;DHT22;13689;48.590;7.752;2023-02-16T17:05:35;11.80;59.60
25871;DHT22;13689;48.590;7.752;2023-02-16T17:08:02;11.80;59.70
25871;DHT22;13689;48.590;7.752;2023-02-16T17:10:28;11.80;59.90
25871;DHT22;13689;48.590;7.752;2023-02-16T17:12:56;11.80;60.00
25871;DHT22;13689;48.590;7.752;2023-02-16T17:18:04;11.70;60.30
25871;DHT22;13689;48.590;7.752;2023-02-16T17:20:30;11.70;60.50
25871;DHT22;13689;48.590;7.752;2023-02-16T17:22:56;11.70;60.60
25871;DHT22;13689;48.590;7.752;2023-02-16T17:25:28;11.70;60.80
25871;DHT22;13689;48.590;7.752;2023-02-16T17:27:54;11.70;60.80
25871;DHT22;13689;48.590;7.752;2023-02-16T17:30:22;11.80;60.80
25871;DHT22;13689;48.590;7.752;2023-02-16T17:32:47;11.80;60.80
25871;DHT22;13689;48.590;7.752;2023-02-16T17:35:13;11.80;60.80
25871;DHT22;13689;48.590;7.752;2023-02-16T17:37:39;11.80;60.90
25871;DHT22;13689;48.590;7.752;2023-02-16T17:40:10;11.90;60.90
25871;DHT22;13689;48.590;7.752;2023-02-16T17:42:40;11.90;60.90
25871;DHT22;13689;48.590;7.752;2023-02-16T17:45:06;11.80;60.80
25871;DHT22;13689;48.590;7.752;2023-02-16T17:47:31;11.90;60.90
25871;DHT22;13689;48.590;7.752;2023-02-16T17:49:57;11.90;61.00
25871;DHT22;13689;48.590;7.752;2023-02-16T17:52:23;11.90;61.10
25871;DHT22;13689;48.590;7.752;2023-02-16T17:54:49;11.90;61.00
25871;DHT22;13689;48.590;7.752;2023-02-16T17:57:15;11.90;61.00
25871;DHT22;13689;48.590;7.752;2023-02-16T17:59:41;11.90;61.00
25871;DHT22;13689;48.590;7.752;2023-02-16T18:02:14;11.90;61.00
25871;DHT22;13689;48.590;7.752;2023-02-16T18:04:39;11.90;61.10
25871;DHT22;13689;48.590;7.752;2023-02-16T18:07:16;11.90;61.10
25871;DHT22;13689;48.590;7.752;2023-02-16T18:09:43;11.90;61.10
25871;DHT22;13689;48.590;7.752;2023-02-16T18:12:09;11.90;61.10
25871;DHT22;13689;48.590;7.752;2023-02-16T18:14:35;11.90;61.10
25871;DHT22;13689;48.590;7.752;2023-02-16T18:17:01;11.90;61.10
25871;DHT22;13689;48.590;7.752;2023-02-16T18:19:27;11.90;61.00
25871;DHT22;13689;48.590;7.752;2023-02-16T18:21:53;11.90;60.90
25871;DHT22;13689;48.590;7.752;2023-02-16T18:24:19;11.90;60.80
25871;DHT22;13689;48.590;7.752;2023-02-16T18:26:46;11.90;60.70
25871;DHT22;13689;48.590;7.752;2023-02-16T18:29:12;11.90;60.70
25871;DHT22;13689;48.590;7.752;2023-02-16T18:31:38;11.90;60.70
25871;DHT22;13689;48.590;7.752;2023-02-16T18:34:06;11.90;60.60
25871;DHT22;13689;48.590;7.752;2023-02-16T18:36:34;11.90;61.30
25871;DHT22;13689;48.590;7.752;2023-02-16T18:39:00;11.90;60.50
25871;DHT22;13689;48.590;7.752;2023-02-16T18:41:26;11.90;60.40
25871;DHT22;13689;48.590;7.752;2023-02-16T18:43:52;11.90;60.20
25871;DHT22;13689;48.590;7.752;2023-02-16T18:46:17;11.90;60.10
25871;DHT22;13689;48.590;7.752;2023-02-16T18:48:43;11.90;59.90
25871;DHT22;13689;48.590;7.752;2023-02-16T18:51:10;11.90;59.90